Time;durP1;ratioP1;P1;durP2;ratioP2;P2;SDS_P1;SDS_P2;PMS_P1;PMS_P2;Temp;Humidity;BMP_temperature;BMP_pressure;BME280_temperature;BME280_humidity;BME280_pressure;Samples;Min_cycle;Max_cycle;Signal;HPM_P1;HPM_P2
2021/11/10 00:00:21;;;;;;;;;;;12.10;99.90;;;;;;6136007;23;19972;-79
2021/11/10 00:02:47;;;;;;;;;;;12.10;99.90;;;;;;6137479;23;19909;-80
2021/11/10 00:05:13;;;;;;;;;;;12.10;99.90;;;;;;6139699;23;19905;-80
2021/11/10 00:07:39;;;;;;;;;;;12.10;99.90;;;;;;6136356;23;19911;-79
2021/11/10 00:10:05;;;;;;;;;;;12.20;99.90;;;;;;6131701;23;19929;-80
2021/11/10 00:12:30;;;;;;;;;;;12.10;99.90;;;;;;6129085;23;20383;-79
2021/11/10 00:14:56;;;;;;;;;;;12.10;99.90;;;;;;6101705;23;19983;-80
2021/11/10 00:17:22;;;;;;;;;;;12.10;99.90;;;;;;6127941;23;19904;-80
2021/11/10 00:19:47;;;;;;;;;;;12.20;99.90;;;;;;6105134;23;19909;-79
2021/11/10 00:22:13;;;;;;;;;;;12.20;99.90;;;;;;6131535;23;19905;-80
2021/11/10 00:24:39;;;;;;;;;;;12.20;99.90;;;;;;6133215;23;19919;-80
2021/11/10 00:27:05;;;;;;;;;;;12.30;99.90;;;;;;6132433;23;19905;-80
2021/11/10 00:29:30;;;;;;;;;;;12.30;99.90;;;;;;6107486;23;19980;-80
2021/11/10 00:31:56;;;;;;;;;;;12.30;99.90;;;;;;6131225;23;19905;-80
2021/11/10 00:34:22;;;;;;;;;;;12.30;99.90;;;;;;6130749;23;19912;-80
2021/11/10 00:36:47;;;;;;;;;;;12.30;99.90;;;;;;6131434;23;19975;-80
2021/11/10 00:39:13;;;;;;;;;;;12.30;99.90;;;;;;6130322;23;20322;-80
2021/11/10 00:41:39;;;;;;;;;;;12.30;99.90;;;;;;6129092;23;19964;-80
2021/11/10 00:44:05;;;;;;;;;;;12.40;99.90;;;;;;6127971;23;19920;-79
2021/11/10 00:46:31;;;;;;;;;;;12.40;99.90;;;;;;6127017;23;19923;-80
2021/11/10 00:48:56;;;;;;;;;;;12.40;99.90;;;;;;6128279;23;19905;-80
2021/11/10 00:51:23;;;;;;;;;;;12.50;99.90;;;;;;6128020;23;19905;-79
2021/11/10 00:53:48;;;;;;;;;;;12.50;99.90;;;;;;6127774;23;20283;-80
2021/11/10 00:56:14;;;;;;;;;;;12.50;99.90;;;;;;6128316;23;19909;-80
2021/11/10 00:58:40;;;;;;;;;;;12.50;99.90;;;;;;6132755;23;19905;-80
2021/11/10 01:01:05;;;;;;;;;;;12.50;99.90;;;;;;6139884;23;19905;-80
2021/11/10 01:03:31;;;;;;;;;;;12.50;99.90;;;;;;6114513;23;19913;-80
2021/11/10 01:05:58;;;;;;;;;;;12.50;99.90;;;;;;6140442;23;19990;-80
2021/11/10 01:08:24;;;;;;;;;;;12.50;99.90;;;;;;6140021;23;19905;-80
2021/11/10 01:10:50;;;;;;;;;;;12.50;99.90;;;;;;6136522;23;19905;-79
2021/11/10 01:13:16;;;;;;;;;;;12.50;99.90;;;;;;6139339;23;19905;-80
2021/11/10 01:15:42;;;;;;;;;;;12.40;99.90;;;;;;6141118;23;19905;-80
2021/11/10 01:18:08;;;;;;;;;;;12.40;99.90;;;;;;6137935;23;19905;-79
2021/11/10 01:20:34;;;;;;;;;;;12.40;99.90;;;;;;6110929;23;19952;-79
2021/11/10 01:23:00;;;;;;;;;;;12.30;99.90;;;;;;6138187;23;19916;-79
2021/11/10 01:25:26;;;;;;;;;;;12.30;99.90;;;;;;6136874;23;19911;-80
2021/11/10 01:27:51;;;;;;;;;;;12.20;99.90;;;;;;6138971;23;19956;-80
2021/11/10 01:30:17;;;;;;;;;;;12.20;99.90;;;;;;6139657;23;20004;-80
2021/11/10 01:32:43;;;;;;;;;;;12.20;99.90;;;;;;6139957;23;19905;-81
2021/11/10 01:35:09;;;;;;;;;;;12.10;99.90;;;;;;6139005;23;19928;-80
2021/11/10 01:37:34;;;;;;;;;;;12.10;99.90;;;;;;6138170;23;19999;-80
2021/11/10 01:40:00;;;;;;;;;;;12.00;99.90;;;;;;6138214;23;19952;-79
2021/11/10 01:42:30;;;;;;;;;;;12.00;99.90;;;;;;6111970;23;20250;-82
2021/11/10 01:44:56;;;;;;;;;;;12.00;99.90;;;;;;6135488;23;19940;-79
2021/11/10 01:47:22;;;;;;;;;;;12.00;99.90;;;;;;6140217;23;19913;-80
2021/11/10 01:49:47;;;;;;;;;;;12.00;99.90;;;;;;6139788;23;20032;-79
2021/11/10 01:52:13;;;;;;;;;;;12.00;99.90;;;;;;6142034;23;19964;-79
2021/11/10 01:54:40;;;;;;;;;;;12.00;99.90;;;;;;6147307;23;19893;-80
2021/11/10 01:57:07;;;;;;;;;;;12.10;99.90;;;;;;6122985;23;19916;-79
2021/11/10 01:59:38;;;;;;;;;;;12.10;99.90;;;;;;6147471;23;19904;-80
2021/11/10 02:02:05;;;;;;;;;;;12.10;99.90;;;;;;6143179;23;19959;-79
2021/11/10 02:04:32;;;;;;;;;;;12.20;99.90;;;;;;6136933;23;19920;-80
2021/11/10 02:06:58;;;;;;;;;;;12.20;99.90;;;;;;6137335;23;19987;-80
2021/11/10 02:09:24;;;;;;;;;;;12.30;99.90;;;;;;6111964;23;19954;-81
2021/11/10 02:11:51;;;;;;;;;;;12.30;99.90;;;;;;6146261;23;19905;-80
2021/11/10 02:14:18;;;;;;;;;;;12.30;99.90;;;;;;6147826;23;19893;-79
2021/11/10 02:16:43;;;;;;;;;;;12.30;99.90;;;;;;6149656;23;19912;-80
2021/11/10 02:19:10;;;;;;;;;;;12.20;99.90;;;;;;6149313;23;19933;-80
2021/11/10 02:21:41;;;;;;;;;;;12.20;99.90;;;;;;6150053;23;19932;-79
2021/11/10 02:24:07;;;;;;;;;;;12.20;99.90;;;;;;6136432;23;19913;-80
2021/11/10 02:26:32;;;;;;;;;;;12.20;99.90;;;;;;6137228;23;19939;-80
2021/11/10 02:28:58;;;;;;;;;;;12.20;99.90;;;;;;6114311;23;19964;-80
2021/11/10 02:31:24;;;;;;;;;;;12.20;99.90;;;;;;6139870;23;19905;-80
2021/11/10 02:33:50;;;;;;;;;;;12.20;99.90;;;;;;6140516;23;20372;-79
2021/11/10 02:36:15;;;;;;;;;;;12.20;99.90;;;;;;6140424;23;19924;-80
2021/11/10 02:38:42;;;;;;;;;;;12.20;99.90;;;;;;6139316;23;19916;-81
2021/11/10 02:41:09;;;;;;;;;;;12.20;99.90;;;;;;6141460;23;19932;-83
2021/11/10 02:43:35;;;;;;;;;;;12.20;99.90;;;;;;6138056;23;19948;-80
2021/11/10 02:46:00;;;;;;;;;;;12.20;99.90;;;;;;6137541;23;19913;-80
2021/11/10 02:48:26;;;;;;;;;;;12.20;99.90;;;;;;6136499;23;19905;-80
2021/11/10 02:50:52;;;;;;;;;;;12.10;99.90;;;;;;6136373;23;19988;-80
2021/11/10 02:53:18;;;;;;;;;;;12.10;99.90;;;;;;6136344;23;20237;-80
2021/11/10 02:55:43;;;;;;;;;;;12.10;99.90;;;;;;6135715;23;20311;-81
2021/11/10 02:58:09;;;;;;;;;;;12.10;99.90;;;;;;6139439;23;19912;-80
2021/11/10 03:00:35;;;;;;;;;;;12.10;99.90;;;;;;6139857;23;19915;-80
2021/11/10 03:03:02;;;;;;;;;;;12.10;99.90;;;;;;6139185;23;19932;-80
2021/11/10 03:05:28;;;;;;;;;;;12.10;99.90;;;;;;6139548;23;19962;-79
2021/11/10 03:07:54;;;;;;;;;;;12.10;99.90;;;;;;6138564;23;19905;-80
2021/11/10 03:10:20;;;;;;;;;;;12.10;99.90;;;;;;6138710;23;20220;-80
2021/11/10 03:12:46;;;;;;;;;;;12.20;99.90;;;;;;6138661;23;19916;-80
2021/11/10 03:15:12;;;;;;;;;;;12.30;99.90;;;;;;6139928;23;19988;-80
2021/11/10 03:17:38;;;;;;;;;;;12.30;99.90;;;;;;6138636;23;19905;-80
2021/11/10 03:20:04;;;;;;;;;;;12.30;99.90;;;;;;6139561;23;20241;-80
2021/11/10 03:22:30;;;;;;;;;;;12.30;99.90;;;;;;6139135;23;19905;-81
2021/11/10 03:24:56;;;;;;;;;;;12.30;99.90;;;;;;6113974;23;19988;-80
2021/11/10 03:27:22;;;;;;;;;;;12.30;99.90;;;;;;6139859;23;19905;-80
2021/11/10 03:29:50;;;;;;;;;;;12.30;99.90;;;;;;6137869;23;19905;-80
2021/11/10 03:32:16;;;;;;;;;;;12.30;99.90;;;;;;6139218;23;19912;-81
2021/11/10 03:34:42;;;;;;;;;;;12.30;99.90;;;;;;6139678;23;19905;-80
2021/11/10 03:37:08;;;;;;;;;;;12.30;99.90;;;;;;6139497;23;19968;-80
2021/11/10 03:39:34;;;;;;;;;;;12.30;99.90;;;;;;6139962;23;19909;-80
2021/11/10 03:42:00;;;;;;;;;;;12.30;99.90;;;;;;6138775;23;19928;-80
2021/11/10 03:44:26;;;;;;;;;;;12.30;99.90;;;;;;6135960;23;19920;-80
2021/11/10 03:46:51;;;;;;;;;;;12.30;99.90;;;;;;6134294;23;19947;-80
2021/11/10 03:49:17;;;;;;;;;;;12.30;99.90;;;;;;6134870;23;19956;-79
2021/11/10 03:51:44;;;;;;;;;;;12.30;99.90;;;;;;6135491;23;19955;-80
2021/11/10 03:54:10;;;;;;;;;;;12.30;99.90;;;;;;6139670;23;19984;-80
2021/11/10 03:56:35;;;;;;;;;;;12.20;99.90;;;;;;6138342;23;19912;-80
2021/11/10 03:59:01;;;;;;;;;;;12.20;99.90;;;;;;6111909;23;19916;-79
2021/11/10 04:01:27;;;;;;;;;;;12.20;99.90;;;;;;6107833;23;19941;-80
2021/11/10 04:03:52;;;;;;;;;;;12.20;99.90;;;;;;6133703;23;19975;-80
2021/11/10 04:06:19;;;;;;;;;;;12.10;99.90;;;;;;6109487;23;19916;-79
2021/11/10 04:08:44;;;;;;;;;;;12.10;99.90;;;;;;6136181;23;19905;-79
2021/11/10 04:11:10;;;;;;;;;;;12.20;99.90;;;;;;6111169;23;19905;-79
2021/11/10 04:13:36;;;;;;;;;;;12.10;99.90;;;;;;6111504;23;19905;-81
2021/11/10 04:16:01;;;;;;;;;;;12.20;99.90;;;;;;6111059;23;19905;-79
2021/11/10 04:18:32;;;;;;;;;;;12.10;99.90;;;;;;6138270;23;19905;-79
2021/11/10 04:20:59;;;;;;;;;;;12.10;99.90;;;;;;6138484;23;19909;-79
2021/11/10 04:23:25;;;;;;;;;;;12.10;99.90;;;;;;6136304;23;19997;-79
2021/11/10 04:25:50;;;;;;;;;;;12.10;99.90;;;;;;6109524;23;19916;-80
2021/11/10 04:28:16;;;;;;;;;;;12.10;99.90;;;;;;6134211;23;19912;-79
2021/11/10 04:30:41;;;;;;;;;;;12.10;99.90;;;;;;6137522;23;19909;-79
2021/11/10 04:33:07;;;;;;;;;;;12.10;99.90;;;;;;6137541;23;19965;-79
2021/11/10 04:35:33;;;;;;;;;;;12.00;99.90;;;;;;6138257;23;19904;-79
2021/11/10 04:37:59;;;;;;;;;;;12.00;99.90;;;;;;6133091;23;19909;-79
2021/11/10 04:40:24;;;;;;;;;;;12.00;99.90;;;;;;6135654;23;19912;-80
2021/11/10 04:42:50;;;;;;;;;;;12.00;99.90;;;;;;6136850;23;19920;-79
2021/11/10 04:45:26;;;;;;;;;;;12.00;99.90;;;;;;6109219;23;19912;-79
2021/11/10 04:47:51;;;;;;;;;;;12.00;99.90;;;;;;6140694;23;19931;-79
2021/11/10 04:50:18;;;;;;;;;;;11.90;99.90;;;;;;6141864;23;19905;-80
2021/11/10 04:52:43;;;;;;;;;;;12.00;99.90;;;;;;6141917;23;19968;-80
2021/11/10 04:55:09;;;;;;;;;;;11.90;99.90;;;;;;6140435;23;19993;-79
2021/11/10 04:57:35;;;;;;;;;;;11.80;99.90;;;;;;6142829;23;19895;-80
2021/11/10 05:00:00;;;;;;;;;;;11.80;99.90;;;;;;6144458;23;19909;-79
2021/11/10 05:02:26;;;;;;;;;;;11.80;99.90;;;;;;6141606;23;19905;-79
2021/11/10 05:04:53;;;;;;;;;;;11.90;99.90;;;;;;6141865;23;19905;-80
2021/11/10 05:07:20;;;;;;;;;;;11.80;99.90;;;;;;6142519;23;19912;-80
2021/11/10 05:09:46;;;;;;;;;;;11.80;99.90;;;;;;6141534;23;19905;-79
2021/11/10 05:12:12;;;;;;;;;;;11.70;99.90;;;;;;6140122;23;19905;-79
2021/11/10 05:14:38;;;;;;;;;;;11.70;99.90;;;;;;6142734;23;20348;-78
2021/11/10 05:17:04;;;;;;;;;;;11.70;99.90;;;;;;6142226;23;19909;-79
2021/11/10 05:19:29;;;;;;;;;;;11.70;99.90;;;;;;6139014;23;19920;-82
2021/11/10 05:21:55;;;;;;;;;;;11.70;99.90;;;;;;6139094;23;19993;-80
2021/11/10 05:24:22;;;;;;;;;;;11.70;99.90;;;;;;6139543;23;19924;-82
2021/11/10 05:26:48;;;;;;;;;;;11.70;99.90;;;;;;6141774;23;19912;-79
2021/11/10 05:29:14;;;;;;;;;;;11.80;99.90;;;;;;6141798;23;19905;-80
2021/11/10 05:31:40;;;;;;;;;;;11.80;99.90;;;;;;6143033;23;19913;-79
2021/11/10 05:34:05;;;;;;;;;;;11.80;99.90;;;;;;6143286;23;19909;-80
2021/11/10 05:36:31;;;;;;;;;;;11.80;99.90;;;;;;6142331;23;19920;-79
2021/11/10 05:38:57;;;;;;;;;;;11.90;99.90;;;;;;6140823;23;19905;-79
2021/11/10 05:41:23;;;;;;;;;;;11.80;99.90;;;;;;6138866;23;20326;-80
2021/11/10 05:43:48;;;;;;;;;;;11.90;99.90;;;;;;6140397;23;19916;-80
2021/11/10 05:46:14;;;;;;;;;;;11.90;99.90;;;;;;6140501;23;19904;-79
2021/11/10 05:48:40;;;;;;;;;;;11.80;99.90;;;;;;6140779;23;19978;-80
2021/11/10 05:51:06;;;;;;;;;;;11.90;99.90;;;;;;6141582;23;19957;-80
2021/11/10 05:53:32;;;;;;;;;;;11.90;99.90;;;;;;6141322;23;19957;-80
2021/11/10 05:55:59;;;;;;;;;;;11.90;99.90;;;;;;6142344;23;19905;-80
2021/11/10 05:58:28;;;;;;;;;;;11.90;99.90;;;;;;6142533;23;19991;-79
2021/11/10 06:00:56;;;;;;;;;;;11.90;99.90;;;;;;6142609;23;19905;-80
2021/11/10 06:03:22;;;;;;;;;;;11.90;99.90;;;;;;6142972;23;19953;-80
2021/11/10 06:05:51;;;;;;;;;;;11.90;99.90;;;;;;6142388;23;19928;-80
2021/11/10 06:08:17;;;;;;;;;;;11.90;99.90;;;;;;6139340;23;19909;-80
2021/11/10 06:10:42;;;;;;;;;;;11.80;99.90;;;;;;6142438;23;19952;-79
2021/11/10 06:13:08;;;;;;;;;;;11.90;99.90;;;;;;6137807;23;19909;-79
2021/11/10 06:15:34;;;;;;;;;;;11.80;99.90;;;;;;6142204;23;19909;-79
2021/11/10 06:17:59;;;;;;;;;;;11.80;99.90;;;;;;6117518;23;19916;-79
2021/11/10 06:20:25;;;;;;;;;;;11.80;99.90;;;;;;6145072;23;19912;-79
2021/11/10 06:22:51;;;;;;;;;;;11.80;99.90;;;;;;6143768;23;19913;-79
2021/11/10 06:25:17;;;;;;;;;;;11.90;99.90;;;;;;6145170;23;19916;-79
2021/11/10 06:27:42;;;;;;;;;;;11.90;99.90;;;;;;6144821;23;19925;-78
2021/11/10 06:30:09;;;;;;;;;;;11.90;99.90;;;;;;6142994;23;19905;-80
2021/11/10 06:32:35;;;;;;;;;;;11.90;99.90;;;;;;6143906;23;19905;-81
2021/11/10 06:35:01;;;;;;;;;;;11.90;99.90;;;;;;6141534;23;19947;-79
2021/11/10 06:37:26;;;;;;;;;;;12.00;99.90;;;;;;6142181;23;19905;-79
2021/11/10 06:39:52;;;;;;;;;;;12.00;99.90;;;;;;6138807;23;19905;-80
2021/11/10 06:42:18;;;;;;;;;;;12.00;99.90;;;;;;6118855;23;19905;-79
2021/11/10 06:44:43;;;;;;;;;;;12.00;99.90;;;;;;6143305;23;19920;-80
2021/11/10 06:47:09;;;;;;;;;;;12.10;99.90;;;;;;6142252;23;19911;-79
2021/11/10 06:49:35;;;;;;;;;;;12.10;99.90;;;;;;6142721;23;19919;-80
2021/11/10 06:52:01;;;;;;;;;;;12.30;99.90;;;;;;6140820;23;19909;-79
2021/11/10 06:54:26;;;;;;;;;;;12.30;99.90;;;;;;6141366;23;19941;-80
2021/11/10 06:56:53;;;;;;;;;;;12.40;99.90;;;;;;6115088;23;19952;-79
2021/11/10 06:59:19;;;;;;;;;;;12.40;99.90;;;;;;6141051;23;20301;-79
2021/11/10 07:01:45;;;;;;;;;;;12.50;99.90;;;;;;6119586;23;19955;-80
2021/11/10 07:04:11;;;;;;;;;;;12.60;99.90;;;;;;6137543;23;19913;-76
2021/11/10 07:06:37;;;;;;;;;;;12.70;99.90;;;;;;6129150;23;19971;-76
2021/11/10 07:09:05;;;;;;;;;;;12.60;99.90;;;;;;6127458;23;20030;-75
2021/11/10 07:11:31;;;;;;;;;;;12.60;99.90;;;;;;6128619;23;19909;-76
2021/11/10 07:13:57;;;;;;;;;;;12.60;99.90;;;;;;6128555;23;19905;-75
2021/11/10 07:16:22;;;;;;;;;;;12.60;99.90;;;;;;6128238;23;20242;-75
2021/11/10 07:18:48;;;;;;;;;;;12.70;99.90;;;;;;6127837;23;19905;-76
2021/11/10 07:21:13;;;;;;;;;;;12.70;99.90;;;;;;6127303;23;19912;-75
2021/11/10 07:23:41;;;;;;;;;;;12.70;99.90;;;;;;6125571;23;19920;-75
2021/11/10 07:26:07;;;;;;;;;;;12.60;99.90;;;;;;6100850;23;19909;-76
2021/11/10 07:28:33;;;;;;;;;;;12.70;99.90;;;;;;6126735;23;20253;-75
2021/11/10 07:30:58;;;;;;;;;;;12.70;99.90;;;;;;6127048;23;19911;-76
2021/11/10 07:33:24;;;;;;;;;;;12.60;99.90;;;;;;6103120;23;20054;-76
2021/11/10 07:35:50;;;;;;;;;;;12.70;99.90;;;;;;6128599;23;19905;-76
2021/11/10 07:38:19;;;;;;;;;;;12.70;99.90;;;;;;6128326;23;19905;-75
2021/11/10 07:40:45;;;;;;;;;;;12.60;99.90;;;;;;6127420;23;20326;-75
2021/11/10 07:43:10;;;;;;;;;;;12.60;99.90;;;;;;6128237;23;19933;-77
2021/11/10 07:45:37;;;;;;;;;;;12.70;99.90;;;;;;6126820;23;19936;-76
2021/11/10 07:48:05;;;;;;;;;;;12.70;99.90;;;;;;6127523;23;19909;-74
2021/11/10 07:50:31;;;;;;;;;;;12.70;99.90;;;;;;6127713;23;19912;-75
2021/11/10 07:52:57;;;;;;;;;;;12.70;99.90;;;;;;6127834;23;20000;-74
2021/11/10 07:55:23;;;;;;;;;;;12.70;99.90;;;;;;6128345;23;19905;-75
2021/11/10 07:57:49;;;;;;;;;;;12.70;99.90;;;;;;6128682;23;19905;-76
2021/11/10 08:00:16;;;;;;;;;;;12.70;99.90;;;;;;6128090;23;19905;-76
2021/11/10 08:02:43;;;;;;;;;;;12.70;99.90;;;;;;6126691;23;20292;-76
2021/11/10 08:05:09;;;;;;;;;;;12.80;99.90;;;;;;6100082;23;19949;-76
2021/11/10 08:07:35;;;;;;;;;;;12.90;99.90;;;;;;6127290;23;19905;-76
2021/11/10 08:10:01;;;;;;;;;;;13.00;99.90;;;;;;6126928;23;20301;-75
2021/11/10 08:12:27;;;;;;;;;;;13.10;99.90;;;;;;6128305;23;19930;-76
2021/11/10 08:14:53;;;;;;;;;;;13.20;99.90;;;;;;6127630;23;19916;-76
2021/11/10 08:17:19;;;;;;;;;;;13.30;99.90;;;;;;6128072;23;19905;-76
2021/11/10 08:19:44;;;;;;;;;;;13.30;99.90;;;;;;6128204;23;19905;-75
2021/11/10 08:22:10;;;;;;;;;;;13.40;99.90;;;;;;6127643;23;19996;-75
2021/11/10 08:24:36;;;;;;;;;;;13.50;99.90;;;;;;6127682;23;19932;-73
2021/11/10 08:27:02;;;;;;;;;;;13.60;99.90;;;;;;6101323;23;19912;-72
2021/11/10 08:29:28;;;;;;;;;;;13.50;99.90;;;;;;6126835;23;19928;-73
2021/11/10 08:31:53;;;;;;;;;;;13.50;99.90;;;;;;6126369;23;19912;-73
2021/11/10 08:34:19;;;;;;;;;;;13.60;99.90;;;;;;6127052;23;19905;-74
2021/11/10 08:36:44;;;;;;;;;;;13.60;99.90;;;;;;6126131;23;19924;-73
2021/11/10 08:39:10;;;;;;;;;;;13.80;99.90;;;;;;6128464;23;20466;-77
2021/11/10 08:41:36;;;;;;;;;;;13.80;99.90;;;;;;6128869;23;19913;-77
2021/11/10 08:44:03;;;;;;;;;;;13.80;99.90;;;;;;6130699;23;20218;-76
2021/11/10 08:46:29;;;;;;;;;;;13.90;99.90;;;;;;6104595;23;19905;-77
2021/11/10 08:48:55;;;;;;;;;;;13.80;99.90;;;;;;6131563;23;19905;-79
2021/11/10 08:51:21;;;;;;;;;;;13.90;99.90;;;;;;6130581;23;19927;-77
2021/11/10 08:53:47;;;;;;;;;;;14.00;99.90;;;;;;6129836;23;19988;-79
2021/11/10 08:56:13;;;;;;;;;;;14.10;99.90;;;;;;6129512;23;19905;-77
2021/11/10 08:58:39;;;;;;;;;;;14.10;99.90;;;;;;6129873;23;19911;-77
2021/11/10 09:01:04;;;;;;;;;;;14.20;99.90;;;;;;6128484;23;19933;-77
2021/11/10 09:03:30;;;;;;;;;;;14.30;99.90;;;;;;6102630;23;19909;-76
2021/11/10 09:05:56;;;;;;;;;;;14.40;99.90;;;;;;6128261;23;19943;-80
2021/11/10 09:08:22;;;;;;;;;;;14.40;99.90;;;;;;6127713;23;19905;-76
2021/11/10 09:10:48;;;;;;;;;;;14.50;99.90;;;;;;6131570;23;19905;-77
2021/11/10 09:13:14;;;;;;;;;;;14.60;99.90;;;;;;6133016;23;19905;-78
2021/11/10 09:15:39;;;;;;;;;;;14.70;99.90;;;;;;6134008;23;20219;-77
2021/11/10 09:18:07;;;;;;;;;;;14.70;99.90;;;;;;6135937;23;19912;-77
2021/11/10 09:20:33;;;;;;;;;;;14.70;99.90;;;;;;6135953;23;19905;-78
2021/11/10 09:23:00;;;;;;;;;;;14.70;99.90;;;;;;6130936;23;19968;-76
2021/11/10 09:25:26;;;;;;;;;;;14.80;99.90;;;;;;6103062;23;19944;-76
2021/11/10 09:27:52;;;;;;;;;;;14.70;99.90;;;;;;6126283;23;19916;-76
2021/11/10 09:30:18;;;;;;;;;;;14.80;99.90;;;;;;6127445;23;20245;-75
2021/11/10 09:32:44;;;;;;;;;;;14.80;99.90;;;;;;6126984;23;19912;-76
2021/11/10 09:35:11;;;;;;;;;;;14.70;99.90;;;;;;6127502;23;19905;-77
2021/11/10 09:37:37;;;;;;;;;;;14.80;99.90;;;;;;6100431;23;19905;-77
2021/11/10 09:40:04;;;;;;;;;;;14.90;99.90;;;;;;6127483;23;20246;-76
2021/11/10 09:42:30;;;;;;;;;;;14.90;99.90;;;;;;6127682;23;20405;-77
2021/11/10 09:44:55;;;;;;;;;;;15.00;99.90;;;;;;6127597;23;19920;-77
2021/11/10 09:47:21;;;;;;;;;;;15.00;99.90;;;;;;6127292;23;19908;-77
2021/11/10 09:49:48;;;;;;;;;;;14.90;99.90;;;;;;6126840;23;19905;-75
2021/11/10 09:52:14;;;;;;;;;;;15.00;99.90;;;;;;6126967;23;19940;-77
2021/11/10 09:54:40;;;;;;;;;;;15.20;99.90;;;;;;6127965;23;19905;-77
2021/11/10 09:57:06;;;;;;;;;;;15.20;99.90;;;;;;6101585;23;19999;-77
2021/11/10 09:59:31;;;;;;;;;;;15.30;99.90;;;;;;6101775;23;19920;-77
2021/11/10 10:01:58;;;;;;;;;;;15.30;99.90;;;;;;6127607;23;19980;-75
2021/11/10 10:04:25;;;;;;;;;;;15.30;99.90;;;;;;6101284;23;20227;-77
2021/11/10 10:06:51;;;;;;;;;;;15.30;99.90;;;;;;6126217;23;20219;-77
2021/11/10 10:09:18;;;;;;;;;;;15.40;99.90;;;;;;6100494;23;19909;-77
2021/11/10 10:11:44;;;;;;;;;;;15.30;99.90;;;;;;6125735;23;19911;-77
2021/11/10 10:14:09;;;;;;;;;;;15.30;99.90;;;;;;6126192;23;19932;-76
2021/11/10 10:16:35;;;;;;;;;;;15.30;99.90;;;;;;6126964;23;19905;-77
2021/11/10 10:19:08;;;;;;;;;;;15.30;99.90;;;;;;6127302;23;19909;-77
2021/11/10 10:21:34;;;;;;;;;;;15.30;99.90;;;;;;6100298;23;19916;-75
2021/11/10 10:24:00;;;;;;;;;;;15.30;99.90;;;;;;6127200;23;19909;-77
2021/11/10 10:26:26;;;;;;;;;;;15.30;99.90;;;;;;6126122;23;19952;-76
2021/11/10 10:28:54;;;;;;;;;;;15.30;99.90;;;;;;6127527;23;19909;-77
2021/11/10 10:31:21;;;;;;;;;;;15.40;99.90;;;;;;6127243;23;19905;-77
2021/11/10 10:33:49;;;;;;;;;;;15.40;99.90;;;;;;6127353;23;19971;-76
2021/11/10 10:36:16;;;;;;;;;;;15.40;99.90;;;;;;6126704;23;19988;-76
2021/11/10 10:38:42;;;;;;;;;;;15.50;99.90;;;;;;6128495;23;20318;-76
2021/11/10 10:41:09;;;;;;;;;;;15.50;99.90;;;;;;6130894;23;19944;-76
2021/11/10 10:43:39;;;;;;;;;;;15.50;99.90;;;;;;6133016;23;19960;-76
2021/11/10 10:46:05;;;;;;;;;;;15.60;99.90;;;;;;6134662;23;19905;-77
2021/11/10 10:48:31;;;;;;;;;;;15.50;99.90;;;;;;6134954;23;19924;-76
2021/11/10 10:51:03;;;;;;;;;;;15.50;99.90;;;;;;6129266;23;19911;-77
2021/11/10 10:53:31;;;;;;;;;;;15.50;99.90;;;;;;6128589;23;19916;-76
2021/11/10 10:55:57;;;;;;;;;;;15.50;99.90;;;;;;6128401;23;19968;-75
2021/11/10 10:58:31;;;;;;;;;;;15.70;99.90;;;;;;6130181;23;19905;-76
2021/11/10 11:00:57;;;;;;;;;;;15.80;99.90;;;;;;6135864;23;19905;-75
2021/11/10 11:03:24;;;;;;;;;;;16.00;99.90;;;;;;6138184;23;19932;-77
2021/11/10 11:05:50;;;;;;;;;;;16.10;99.90;;;;;;6136347;23;19905;-76
2021/11/10 11:08:33;;;;;;;;;;;16.20;99.90;;;;;;6132612;23;19933;-76
2021/11/10 11:11:00;;;;;;;;;;;16.20;99.90;;;;;;6133480;23;19936;-80
2021/11/10 11:13:42;;;;;;;;;;;16.30;99.90;;;;;;6129409;23;19925;-76
2021/11/10 11:16:09;;;;;;;;;;;16.20;99.90;;;;;;6129721;23;19984;-77
2021/11/10 11:18:36;;;;;;;;;;;16.10;99.90;;;;;;6128054;23;19916;-77
2021/11/10 11:21:20;;;;;;;;;;;16.20;99.90;;;;;;6130349;23;20326;-76
2021/11/10 11:23:46;;;;;;;;;;;16.20;99.90;;;;;;6129073;23;19948;-76
2021/11/10 11:26:30;;;;;;;;;;;16.40;99.90;;;;;;6128691;23;19912;-75
2021/11/10 11:28:58;;;;;;;;;;;16.50;99.90;;;;;;6129564;23;20223;-76
2021/11/10 11:31:33;;;;;;;;;;;16.50;99.90;;;;;;6129910;23;19905;-79
2021/11/10 11:34:00;;;;;;;;;;;16.40;99.90;;;;;;6129020;23;19929;-76
2021/11/10 11:36:46;;;;;;;;;;;16.40;99.90;;;;;;6128952;23;19948;-78
2021/11/10 11:39:11;;;;;;;;;;;16.40;99.90;;;;;;6128636;23;19955;-77
2021/11/10 11:41:39;;;;;;;;;;;16.40;99.90;;;;;;6128930;23;20274;-77
2021/11/10 11:44:05;;;;;;;;;;;16.40;99.90;;;;;;6129251;23;19917;-76
2021/11/10 11:46:31;;;;;;;;;;;16.40;99.90;;;;;;6126636;23;19909;-76
2021/11/10 11:48:57;;;;;;;;;;;16.30;99.90;;;;;;6125429;23;20316;-74
2021/11/10 11:51:24;;;;;;;;;;;16.30;99.90;;;;;;6126979;23;19908;-76
2021/11/10 11:53:50;;;;;;;;;;;16.30;99.90;;;;;;6125804;23;20385;-77
2021/11/10 11:56:17;;;;;;;;;;;16.30;99.90;;;;;;6125227;23;19960;-75
2021/11/10 11:58:43;;;;;;;;;;;16.40;99.90;;;;;;6125713;23;19905;-75
2021/11/10 12:01:12;;;;;;;;;;;16.60;99.90;;;;;;6101483;23;19984;-75
2021/11/10 12:03:37;;;;;;;;;;;16.70;99.90;;;;;;6127093;23;19936;-77
2021/11/10 12:06:03;;;;;;;;;;;16.90;99.90;;;;;;6128158;23;20333;-75
2021/11/10 12:08:39;;;;;;;;;;;17.00;99.90;;;;;;6126912;23;19905;-75
2021/11/10 12:11:20;;;;;;;;;;;17.00;99.90;;;;;;6128205;23;19905;-75
2021/11/10 12:14:04;;;;;;;;;;;17.00;99.90;;;;;;6126946;23;19905;-75
2021/11/10 12:16:45;;;;;;;;;;;17.00;99.90;;;;;;6126635;23;19905;-74
2021/11/10 12:19:21;;;;;;;;;;;16.90;99.90;;;;;;6126753;23;19913;-74
2021/11/10 12:21:48;;;;;;;;;;;16.90;99.90;;;;;;6126814;23;19905;-77
2021/11/10 12:24:15;;;;;;;;;;;16.80;99.90;;;;;;6126793;23;19916;-76
2021/11/10 12:26:59;;;;;;;;;;;16.90;99.90;;;;;;6126321;23;19905;-74
2021/11/10 12:29:43;;;;;;;;;;;17.00;99.90;;;;;;6126748;23;19912;-75
2021/11/10 12:32:09;;;;;;;;;;;17.00;99.90;;;;;;6127125;23;19916;-75
2021/11/10 12:34:35;;;;;;;;;;;17.10;99.90;;;;;;6127263;23;19908;-76
2021/11/10 12:37:03;;;;;;;;;;;17.10;99.90;;;;;;6100760;23;20357;-74
2021/11/10 12:39:32;;;;;;;;;;;17.20;99.90;;;;;;6127356;23;20215;-74
2021/11/10 12:42:05;;;;;;;;;;;17.30;99.90;;;;;;6126887;23;19988;-75
2021/11/10 12:44:32;;;;;;;;;;;17.40;99.90;;;;;;6126986;23;19952;-75
2021/11/10 12:47:00;;;;;;;;;;;17.40;99.90;;;;;;6126240;23;19932;-78
2021/11/10 12:49:27;;;;;;;;;;;17.50;99.90;;;;;;6127342;23;20226;-76
2021/11/10 12:52:22;;;;;;;;;;;17.60;99.90;;;;;;6127469;23;19912;-75
2021/11/10 12:54:48;;;;;;;;;;;17.70;99.90;;;;;;6107777;23;19916;-74
2021/11/10 12:57:30;;;;;;;;;;;17.60;99.90;;;;;;6126418;23;20223;-79
2021/11/10 12:59:56;;;;;;;;;;;17.70;99.90;;;;;;6126771;23;19905;-74
2021/11/10 13:02:22;;;;;;;;;;;17.80;99.90;;;;;;6126727;23;19929;-75
2021/11/10 13:04:52;;;;;;;;;;;17.80;99.90;;;;;;6127084;23;19913;-74
2021/11/10 13:07:21;;;;;;;;;;;17.80;99.90;;;;;;6126607;23;19980;-75
2021/11/10 13:09:49;;;;;;;;;;;17.70;99.90;;;;;;6127164;23;19905;-75
2021/11/10 13:12:16;;;;;;;;;;;17.70;99.90;;;;;;6126995;23;19905;-75
2021/11/10 13:14:46;;;;;;;;;;;17.60;99.90;;;;;;6125941;23;19913;-75
2021/11/10 13:17:21;;;;;;;;;;;17.60;99.90;;;;;;6126331;23;20397;-74
2021/11/10 13:19:53;;;;;;;;;;;17.60;99.90;;;;;;6126226;23;19905;-75
2021/11/10 13:22:27;;;;;;;;;;;17.60;99.90;;;;;;6126675;23;20318;-75
2021/11/10 13:25:16;;;;;;;;;;;17.60;99.90;;;;;;6124043;23;19913;-74
2021/11/10 13:27:44;;;;;;;;;;;17.60;99.90;;;;;;6114346;23;19905;-75
2021/11/10 13:30:12;;;;;;;;;;;17.70;99.90;;;;;;6099826;23;19905;-78
2021/11/10 13:32:42;;;;;;;;;;;17.70;99.90;;;;;;6126784;23;20275;-75
2021/11/10 13:35:09;;;;;;;;;;;17.80;99.90;;;;;;6126934;23;19905;-75
2021/11/10 13:37:51;;;;;;;;;;;17.80;99.90;;;;;;6126253;23;20222;-78
2021/11/10 13:40:17;;;;;;;;;;;17.80;99.90;;;;;;6126146;23;19913;-74
2021/11/10 13:42:47;;;;;;;;;;;17.90;99.90;;;;;;6126601;23;20388;-75
2021/11/10 13:45:15;;;;;;;;;;;17.90;99.90;;;;;;6126309;23;19917;-78
2021/11/10 13:47:55;;;;;;;;;;;17.90;99.90;;;;;;6125503;23;20300;-75
2021/11/10 13:50:24;;;;;;;;;;;17.90;99.90;;;;;;6126832;23;19905;-74
2021/11/10 13:52:58;;;;;;;;;;;17.60;99.90;;;;;;6127088;23;20237;-75
2021/11/10 13:55:23;;;;;;;;;;;17.40;99.90;;;;;;6126668;23;19912;-77
2021/11/10 13:57:49;;;;;;;;;;;17.30;99.90;;;;;;6124986;23;19905;-74
2021/11/10 14:00:17;;;;;;;;;;;17.20;99.90;;;;;;6126923;23;19929;-74
2021/11/10 14:02:47;;;;;;;;;;;17.20;99.90;;;;;;6125599;23;20287;-74
2021/11/10 14:05:14;;;;;;;;;;;17.10;99.90;;;;;;6100510;23;20318;-75
2021/11/10 14:07:41;;;;;;;;;;;17.30;99.90;;;;;;6126019;23;19920;-75
2021/11/10 14:10:11;;;;;;;;;;;17.40;99.90;;;;;;6126979;23;19908;-75
2021/11/10 14:12:39;;;;;;;;;;;17.40;99.90;;;;;;6126470;23;19911;-74
2021/11/10 14:15:04;;;;;;;;;;;17.30;99.90;;;;;;6126731;23;20333;-79